Time;durP1;ratioP1;P1;durP2;ratioP2;P2;SDS_P1;SDS_P2;PMS_P1;PMS_P2;Temp;Humidity;BMP_temperature;BMP_pressure;BME280_temperature;BME280_humidity;BME280_pressure;Samples;Min_cycle;Max_cycle;Signal;HPM_P1;HPM_P2
2021/10/04 00:01:19;;;;;;;10.73;4.35;;;;;;;15.27;86.43;99951.19;5028016;28;20411;-62
2021/10/04 00:04:06;;;;;;;6.40;4.23;;;;;;;15.18;86.94;99960.41;5027973;28;20605;-66
2021/10/04 00:06:51;;;;;;;6.97;4.32;;;;;;;15.13;86.99;99957.41;5031535;28;20106;-62
2021/10/04 00:09:38;;;;;;;7.55;4.85;;;;;;;15.08;87.59;99957.94;5032134;28;20423;-65
2021/10/04 00:12:24;;;;;;;6.28;3.67;;;;;;;15.08;87.00;99959.81;5030965;28;20422;-64
2021/10/04 00:15:10;;;;;;;7.15;4.35;;;;;;;15.02;87.57;99963.22;5032242;28;20052;-62
2021/10/04 00:17:56;;;;;;;7.18;4.35;;;;;;;14.94;88.35;99969.53;5027304;28;20103;-63
2021/10/04 00:20:42;;;;;;;7.28;4.65;;;;;;;14.89;89.07;99977.31;5032014;28;20048;-63
2021/10/04 00:23:27;;;;;;;7.82;4.22;;;;;;;14.91;88.39;99981.53;5031642;28;20057;-63
2021/10/04 00:26:12;;;;;;;6.57;3.80;;;;;;;15.24;86.15;99988.56;5033828;28;20068;-64
2021/10/04 00:28:57;;;;;;;4.95;3.42;;;;;;;15.27;85.65;99997.16;5032961;28;20134;-61
2021/10/04 00:31:42;;;;;;;6.50;3.10;;;;;;;15.39;84.97;99995.75;5023482;28;20545;-65
2021/10/04 00:34:27;;;;;;;5.32;3.55;;;;;;;15.35;85.25;100002.50;5030636;28;20103;-62
2021/10/04 00:37:14;;;;;;;7.68;3.53;;;;;;;15.56;83.88;100003.72;5030535;28;20534;-62
2021/10/04 00:39:59;;;;;;;5.32;3.08;;;;;;;15.74;83.19;100009.66;5030679;28;20192;-62
2021/10/04 00:42:45;;;;;;;5.60;3.33;;;;;;;15.64;83.63;100019.91;5030652;28;20065;-64
2021/10/04 00:45:31;;;;;;;5.20;2.97;;;;;;;15.58;83.82;100023.28;5030195;28;20524;-62
2021/10/04 00:48:16;;;;;;;;;;;;;;;15.36;84.91;100023.13;5032022;28;20561;-62
2021/10/04 00:51:02;;;;;;;4.35;2.85;;;;;;;15.20;85.40;100028.66;5029482;28;20035;-64
2021/10/04 00:53:52;;;;;;;4.80;2.47;;;;;;;15.16;85.31;100035.44;5031433;28;20076;-63
2021/10/04 00:56:37;;;;;;;3.63;2.17;;;;;;;15.39;83.64;100040.84;5024698;28;20128;-62
2021/10/04 00:59:22;;;;;;;5.50;2.30;;;;;;;15.24;84.26;100048.88;5030405;28;20455;-62
2021/10/04 01:02:07;;;;;;;3.97;1.83;;;;;;;15.37;83.52;100048.28;5029706;28;20048;-62
2021/10/04 01:04:52;;;;;;;4.07;2.22;;;;;;;15.29;83.53;100051.91;5030377;28;20059;-64
2021/10/04 01:07:38;;;;;;;7.28;2.00;;;;;;;15.21;83.75;100060.91;5030828;28;20141;-62
2021/10/04 01:10:26;;;;;;;3.08;1.77;;;;;;;14.96;84.73;100056.66;5028837;28;20187;-63
2021/10/04 01:13:11;;;;;;;4.78;2.20;;;;;;;15.05;84.81;100062.88;5030581;28;20055;-64
2021/10/04 01:15:56;;;;;;;3.53;2.00;;;;;;;14.65;86.42;100064.72;5030052;28;20052;-65
2021/10/04 01:18:42;;;;;;;2.55;1.77;;;;;;;14.76;86.11;100069.75;5029734;28;20057;-62
2021/10/04 01:21:28;;;;;;;1.92;1.15;;;;;;;14.68;86.01;100080.63;5031332;28;20192;-63
2021/10/04 01:24:14;;;;;;;1.65;0.98;;;;;;;14.74;83.68;100095.25;5029901;28;20127;-64
2021/10/04 01:26:59;;;;;;;1.67;0.90;;;;;;;14.73;80.46;100096.28;5033587;28;20055;-62
2021/10/04 01:29:44;;;;;;;1.38;0.40;;;;;;;14.57;75.67;100092.63;5037698;28;20049;-63
2021/10/04 01:32:29;;;;;;;0.50;0.40;;;;;;;14.37;75.05;100109.34;5029326;28;20204;-63
2021/10/04 01:35:14;;;;;;;1.60;0.30;;;;;;;14.25;73.25;100101.59;5028988;28;20068;-63
2021/10/04 01:38:00;;;;;;;0.55;0.20;;;;;;;14.00;73.03;100102.66;5027461;28;20052;-62
2021/10/04 01:40:46;;;;;;;0.20;0.20;;;;;;;13.74;74.48;100087.50;5029147;28;20053;-64
2021/10/04 01:43:31;;;;;;;0.22;0.20;;;;;;;13.87;73.64;100088.84;5030595;28;20060;-64
2021/10/04 01:46:17;;;;;;;0.52;0.30;;;;;;;13.84;72.71;100090.00;5027167;28;20057;-63
2021/10/04 01:49:02;;;;;;;0.65;0.30;;;;;;;13.84;73.25;100092.69;5029356;28;20107;-62
2021/10/04 01:51:47;;;;;;;0.30;0.10;;;;;;;13.86;73.27;100095.25;5029193;28;20056;-63
2021/10/04 01:54:34;;;;;;;1.08;0.25;;;;;;;13.80;72.63;100112.09;5029103;28;20526;-62
2021/10/04 01:57:19;;;;;;;0.32;0.20;;;;;;;13.80;73.23;100120.19;5028549;28;20064;-62
2021/10/04 02:00:06;;;;;;;0.30;0.20;;;;;;;13.60;73.65;100125.88;5029165;28;20535;-63
2021/10/04 02:02:53;;;;;;;2.58;0.10;;;;;;;13.60;73.06;100125.03;5028486;28;20124;-63
2021/10/04 02:05:38;;;;;;;0.20;0.10;;;;;;;13.58;72.68;100125.22;5028693;28;20549;-61
2021/10/04 02:08:23;;;;;;;0.60;0.25;;;;;;;13.70;71.65;100125.72;5028620;28;20080;-62
2021/10/04 02:11:10;;;;;;;0.52;0.10;;;;;;;13.45;73.47;100132.94;5029796;28;20049;-62
2021/10/04 02:13:55;;;;;;;0.47;0.20;;;;;;;13.37;73.73;100131.06;5029352;28;20127;-61
2021/10/04 02:16:40;;;;;;;0.35;0.15;;;;;;;13.41;73.55;100137.84;5025372;28;20139;-62
2021/10/04 02:19:25;;;;;;;0.63;0.30;;;;;;;13.61;71.56;100130.25;5024616;28;20060;-63
2021/10/04 02:22:10;;;;;;;1.08;0.13;;;;;;;13.33;73.12;100131.56;5028625;28;20539;-62
2021/10/04 02:24:55;;;;;;;0.25;0.20;;;;;;;13.34;73.40;100130.56;5029393;28;20056;-62
2021/10/04 02:27:43;;;;;;;0.95;0.45;;;;;;;13.08;75.00;100128.75;5036715;28;20060;-62
2021/10/04 02:30:28;;;;;;;0.88;0.15;;;;;;;13.22;73.09;100131.88;5034048;28;20131;-63
2021/10/04 02:33:13;;;;;;;0.10;0.10;;;;;;;13.02;74.15;100140.22;5032330;28;20057;-61
2021/10/04 02:35:58;;;;;;;0.28;0.10;;;;;;;12.95;74.73;100155.31;5024041;28;20092;-64
2021/10/04 02:38:43;;;;;;;0.30;0.10;;;;;;;12.93;76.01;100162.72;5028419;28;20064;-64
2021/10/04 02:41:28;;;;;;;0.20;0.20;;;;;;;12.93;75.22;100167.28;5029542;28;20053;-62
2021/10/04 02:44:14;;;;;;;0.40;0.10;;;;;;;12.78;76.63;100167.00;5028724;28;20354;-62
2021/10/04 02:47:00;;;;;;;0.43;0.20;;;;;;;13.02;75.23;100169.84;5026851;28;20522;-62
2021/10/04 02:49:45;;;;;;;1.58;0.25;;;;;;;13.13;74.97;100163.28;5029890;28;20144;-62
2021/10/04 02:52:30;;;;;;;0.57;0.25;;;;;;;12.94;76.03;100161.72;5028738;28;20064;-63
2021/10/04 02:55:15;;;;;;;0.30;0.30;;;;;;;12.71;77.65;100169.50;5028321;28;20052;-64
2021/10/04 02:58:00;;;;;;;0.10;0.10;;;;;;;12.61;77.70;100179.53;5029846;28;20216;-64
2021/10/04 03:00:46;;;;;;;0.20;0.20;;;;;;;12.54;78.44;100181.16;5029304;28;20067;-63
2021/10/04 03:03:31;;;;;;;1.02;0.30;;;;;;;12.49;79.78;100184.34;5032525;28;20059;-63
2021/10/04 03:06:16;;;;;;;0.65;0.30;;;;;;;12.78;78.15;100186.69;5026635;28;20179;-61
2021/10/04 03:09:01;;;;;;;1.58;0.25;;;;;;;12.64;79.13;100181.06;5033051;28;20514;-66
2021/10/04 03:11:46;;;;;;;2.00;0.35;;;;;;;12.59;79.17;100185.09;5033511;28;20057;-63
2021/10/04 03:14:33;;;;;;;0.52;0.10;;;;;;;12.71;78.46;100190.19;5027540;28;20056;-64
2021/10/04 03:17:20;;;;;;;2.10;0.20;;;;;;;12.61;80.00;100198.38;5032879;28;20582;-65
2021/10/04 03:20:06;;;;;;;0.20;0.20;;;;;;;12.63;79.60;100199.06;5032035;28;20423;-64
2021/10/04 03:22:53;;;;;;;0.10;0.10;;;;;;;12.58;79.65;100196.84;5033427;28;20600;-63
2021/10/04 03:25:39;;;;;;;0.77;0.30;;;;;;;12.89;78.20;100204.44;5032855;28;20216;-63
2021/10/04 03:28:24;;;;;;;1.35;0.10;;;;;;;12.67;79.58;100207.66;5032989;28;20060;-62
2021/10/04 03:31:09;;;;;;;0.20;0.20;;;;;;;12.82;78.79;100215.03;5032017;28;20138;-62
2021/10/04 03:33:55;;;;;;;0.50;0.20;;;;;;;12.68;80.05;100212.06;5031553;28;20127;-63
2021/10/04 03:36:40;;;;;;;0.10;0.10;;;;;;;12.54;80.39;100229.63;5031478;28;20175;-63
2021/10/04 03:39:25;;;;;;;0.27;0.17;;;;;;;12.71;79.64;100227.91;5034476;28;20060;-60
2021/10/04 03:42:10;;;;;;;0.70;0.10;;;;;;;12.72;79.78;100230.44;5029142;28;20808;-63
2021/10/04 03:44:55;;;;;;;2.08;0.30;;;;;;;12.56;80.80;100233.88;5032387;28;20331;-63
2021/10/04 03:47:41;;;;;;;1.85;0.40;;;;;;;12.44;81.43;100245.88;5032778;28;20064;-62
2021/10/04 03:50:27;;;;;;;0.13;0.10;;;;;;;12.36;82.47;100245.81;5025518;28;20119;-62
2021/10/04 03:53:13;;;;;;;1.17;0.10;;;;;;;12.33;82.95;100250.66;5030954;28;20084;-63
2021/10/04 03:55:58;;;;;;;0.27;0.23;;;;;;;12.27;83.75;100258.34;5031124;28;20432;-63
2021/10/04 03:58:43;;;;;;;0.38;0.22;;;;;;;12.25;84.02;100271.13;5032434;28;20378;-62
2021/10/04 04:01:28;;;;;;;0.25;0.20;;;;;;;12.26;84.31;100267.41;5031626;28;20060;-64
2021/10/04 04:04:13;;;;;;;0.65;0.20;;;;;;;12.31;84.00;100280.41;5032908;28;20060;-62
2021/10/04 04:06:59;;;;;;;0.52;0.17;;;;;;;12.36;83.99;100264.66;5031491;28;20172;-63
2021/10/04 04:09:45;;;;;;;0.55;0.10;;;;;;;12.35;84.03;100254.03;5030919;28;20068;-62
2021/10/04 04:12:30;;;;;;;0.57;0.22;;;;;;;12.35;84.95;100260.28;5032444;28;20285;-63
2021/10/04 04:15:17;;;;;;;3.90;0.40;;;;;;;12.36;84.64;100275.41;5032540;28;20052;-63
2021/10/04 04:18:02;;;;;;;0.70;0.17;;;;;;;12.32;84.79;100284.81;5031700;28;20088;-63
2021/10/04 04:20:48;;;;;;;0.33;0.20;;;;;;;12.32;85.14;100284.81;5136177;22;20048;-78
2021/10/04 04:26:20;;;;;;;0.10;0.10;;;;;;;12.35;85.25;100276.41;5029335;28;20045;-65
2021/10/04 04:29:04;;;;;;;;;;;;;;;12.50;83.78;100285.63;5033719;28;20103;-61
2021/10/04 04:31:50;;;;;;;0.60;0.22;;;;;;;12.43;84.34;100268.44;5060022;28;20112;-64
2021/10/04 04:34:35;;;;;;;1.17;0.47;;;;;;;12.38;84.59;100270.72;5043806;28;20060;-62
2021/10/04 04:37:20;;;;;;;1.40;0.38;;;;;;;12.39;84.38;100277.78;5048541;28;20047;-62
2021/10/04 04:40:09;;;;;;;0.32;0.30;;;;;;;12.35;84.72;100289.88;5050548;28;20186;-64
2021/10/04 04:42:55;;;;;;;0.38;0.20;;;;;;;12.30;85.18;100295.69;5067189;28;20083;-64
2021/10/04 04:45:40;;;;;;;0.43;0.28;;;;;;;12.25;85.42;100297.19;5070958;28;20520;-61
2021/10/04 04:48:26;;;;;;;1.75;0.30;;;;;;;12.21;85.13;100301.19;5066551;28;20142;-63
2021/10/04 04:51:11;;;;;;;1.60;0.23;;;;;;;12.23;84.77;100305.41;5041060;28;20049;-63
2021/10/04 04:53:56;;;;;;;0.40;0.38;;;;;;;12.20;85.05;100302.19;5047281;28;20056;-63
2021/10/04 04:56:41;;;;;;;0.20;0.20;;;;;;;12.18;85.12;100296.09;5045186;28;20048;-64
2021/10/04 04:59:28;;;;;;;0.40;0.30;;;;;;;12.18;85.20;100306.84;5042225;28;20067;-63
2021/10/04 05:02:13;;;;;;;0.30;0.20;;;;;;;12.11;85.67;100306.63;5059249;28;20055;-64
2021/10/04 05:04:57;;;;;;;1.88;0.20;;;;;;;12.10;86.49;100323.78;5051125;28;20506;-63
2021/10/04 05:07:43;;;;;;;0.35;0.20;;;;;;;12.03;86.96;100330.75;5066320;28;20172;-61
2021/10/04 05:10:28;;;;;;;2.83;0.22;;;;;;;11.94;87.51;100329.81;5046891;28;20103;-63
2021/10/04 05:13:14;;;;;;;0.68;0.30;;;;;;;11.91;87.67;100340.03;5047376;28;20068;-63
2021/10/04 05:16:00;;;;;;;1.23;0.20;;;;;;;11.92;86.72;100342.56;5049439;28;20783;-61
2021/10/04 05:18:45;;;;;;;0.30;0.20;;;;;;;11.91;87.13;100353.47;5039866;28;20056;-64
2021/10/04 05:21:31;;;;;;;1.40;0.55;;;;;;;11.92;87.19;100342.56;5051282;28;20060;-63
2021/10/04 05:24:16;;;;;;;0.57;0.30;;;;;;;11.94;87.55;100347.78;5048079;28;20067;-64
2021/10/04 05:27:01;;;;;;;0.80;0.30;;;;;;;11.95;87.50;100347.63;5037740;28;20122;-63
2021/10/04 05:29:46;;;;;;;0.20;0.20;;;;;;;11.93;87.14;100357.69;5049643;28;20075;-66
2021/10/04 05:32:32;;;;;;;4.78;0.40;;;;;;;11.85;87.69;100352.25;5054953;28;20060;-63
2021/10/04 05:35:17;;;;;;;0.32;0.30;;;;;;;11.74;88.00;100355.09;5037769;28;20494;-63
2021/10/04 05:38:02;;;;;;;2.05;0.35;;;;;;;11.69;89.07;100362.75;5053362;28;20059;-63
2021/10/04 05:40:48;;;;;;;1.33;0.35;;;;;;;11.66;88.82;100368.41;5048510;28;20059;-63
2021/10/04 05:43:33;;;;;;;2.20;0.50;;;;;;;11.61;87.99;100370.72;5045405;28;20056;-63
2021/10/04 05:46:18;;;;;;;1.02;0.43;;;;;;;11.64;87.28;100376.66;5050153;28;20065;-62
2021/10/04 05:49:04;;;;;;;2.13;0.40;;;;;;;11.72;87.02;100365.16;5054261;28;20514;-63
2021/10/04 05:51:49;;;;;;;0.30;0.20;;;;;;;11.82;86.35;100374.03;5051296;28;20055;-63
2021/10/04 05:54:34;;;;;;;0.50;0.22;;;;;;;11.89;86.17;100375.13;5050859;28;20068;-63
2021/10/04 05:57:19;;;;;;;1.02;0.82;;;;;;;11.95;85.95;100368.31;5049689;28;20056;-62
2021/10/04 06:00:05;;;;;;;0.30;0.20;;;;;;;11.99;85.96;100380.47;5056832;28;20222;-60
2021/10/04 06:02:50;;;;;;;0.40;0.20;;;;;;;12.02;86.05;100382.00;5054849;28;20075;-64
2021/10/04 06:05:36;;;;;;;0.30;0.20;;;;;;;12.09;85.81;100377.72;5053516;28;20094;-64
2021/10/04 06:08:21;;;;;;;0.35;0.20;;;;;;;12.07;86.14;100380.56;5061891;28;20496;-61
2021/10/04 06:11:06;;;;;;;0.35;0.30;;;;;;;12.10;85.66;100385.66;5056691;28;20056;-63
2021/10/04 06:13:51;;;;;;;1.33;0.30;;;;;;;12.09;85.83;100394.72;5044391;28;20409;-63
2021/10/04 06:16:36;;;;;;;1.05;0.40;;;;;;;12.07;85.69;100385.09;5051348;28;20047;-64
2021/10/04 06:19:21;;;;;;;3.08;1.55;;;;;;;12.10;85.86;100392.88;5056671;28;20074;-63
2021/10/04 06:22:07;;;;;;;3.85;1.50;;;;;;;12.07;86.34;100391.31;5055997;28;20105;-64
2021/10/04 06:24:53;;;;;;;4.07;2.05;;;;;;;12.13;86.54;100392.56;5067031;28;20115;-63
2021/10/04 06:27:38;;;;;;;4.22;1.88;;;;;;;12.18;86.80;100387.56;5044509;28;20052;-62
2021/10/04 06:30:24;;;;;;;6.93;2.67;;;;;;;12.25;86.92;100388.66;5057857;28;20060;-63
2021/10/04 06:33:09;;;;;;;4.55;1.85;;;;;;;12.33;86.71;100386.06;5059716;28;20417;-62
2021/10/04 06:35:54;;;;;;;5.43;2.08;;;;;;;12.45;86.46;100389.41;5056869;28;20052;-64
2021/10/04 06:38:41;;;;;;;7.95;3.10;;;;;;;12.56;86.00;100403.47;5044367;28;20103;-60
2021/10/04 06:41:26;;;;;;;7.38;2.95;;;;;;;12.61;86.27;100411.09;5041913;28;20191;-64
2021/10/04 06:44:11;;;;;;;15.77;6.32;;;;;;;12.58;84.89;100420.31;5051096;28;20067;-63
2021/10/04 06:46:56;;;;;;;18.17;7.13;;;;;;;12.63;84.59;100419.00;5055076;28;20051;-62
2021/10/04 06:49:41;;;;;;;10.00;3.78;;;;;;;12.64;85.07;100426.09;5054264;28;20430;-65
2021/10/04 06:52:26;;;;;;;9.50;2.72;;;;;;;12.76;85.42;100431.09;5066938;28;20055;-62
2021/10/04 06:55:13;;;;;;;3.15;1.50;;;;;;;12.94;85.39;100428.41;5056758;28;20150;-63
2021/10/04 06:57:58;;;;;;;4.82;0.68;;;;;;;13.05;84.49;100430.03;5062299;28;20113;-63
2021/10/04 07:00:43;;;;;;;0.90;0.45;;;;;;;13.05;83.69;100447.03;5044922;28;20542;-63
2021/10/04 07:03:28;;;;;;;1.75;0.40;;;;;;;13.16;83.54;100444.09;5041585;28;20186;-63
2021/10/04 07:06:13;;;;;;;1.77;0.30;;;;;;;13.35;82.80;100432.28;5062556;28;20187;-66
2021/10/04 07:08:58;;;;;;;1.20;0.22;;;;;;;13.36;80.74;100449.31;5048469;28;20052;-62
2021/10/04 07:11:45;;;;;;;1.50;0.30;;;;;;;13.37;81.85;100451.00;5052709;28;20055;-62
2021/10/04 07:14:31;;;;;;;3.33;0.95;;;;;;;13.45;80.37;100449.22;5055217;28;20199;-64
2021/10/04 07:17:16;;;;;;;1.05;0.30;;;;;;;13.57;80.21;100457.91;5055839;28;20059;-64
2021/10/04 07:20:01;;;;;;;0.60;0.40;;;;;;;13.57;79.85;100463.28;5065783;28;20063;-65
2021/10/04 07:22:45;;;;;;;2.72;0.40;;;;;;;13.65;79.72;100452.56;5056532;28;20418;-63
2021/10/04 07:25:31;;;;;;;0.60;0.32;;;;;;;13.70;79.75;100455.63;5060427;28;20128;-61
2021/10/04 07:28:17;;;;;;;3.40;0.60;;;;;;;13.78;79.72;100443.19;5049133;28;20056;-63
2021/10/04 07:31:02;;;;;;;2.63;0.40;;;;;;;13.68;79.76;100446.00;5067555;28;20059;-65
2021/10/04 07:33:47;;;;;;;1.85;0.40;;;;;;;13.62;78.38;100460.13;5057849;28;20054;-62
2021/10/04 07:36:33;;;;;;;0.88;0.32;;;;;;;13.52;80.49;100471.03;5057166;28;20052;-63
2021/10/04 07:39:18;;;;;;;;;;;;;;;13.56;80.54;100477.78;5053682;28;20190;-63
2021/10/04 07:42:04;;;;;;;1.75;0.30;;;;;;;13.53;81.16;100480.81;5053105;28;20081;-64
2021/10/04 07:44:50;;;;;;;0.52;0.35;;;;;;;13.52;81.31;100486.34;5061509;28;20056;-63
2021/10/04 07:47:36;;;;;;;0.70;0.20;;;;;;;13.43;82.14;100488.97;5051064;28;20434;-63
2021/10/04 07:50:21;;;;;;;0.97;0.37;;;;;;;13.39;81.79;100498.41;5042855;28;20534;-61
2021/10/04 07:53:06;;;;;;;0.60;0.40;;;;;;;13.33;81.47;100506.25;5060458;28;20075;-63
2021/10/04 07:55:51;;;;;;;2.25;0.40;;;;;;;13.29;81.81;100507.56;5052902;28;20155;-61
2021/10/04 07:58:36;;;;;;;0.93;0.35;;;;;;;13.23;81.84;100525.19;5066238;28;20509;-65
2021/10/04 08:01:23;;;;;;;3.05;0.50;;;;;;;13.23;82.14;100517.09;5050367;28;20512;-64
2021/10/04 08:04:08;;;;;;;1.30;0.60;;;;;;;13.23;82.73;100518.94;5041108;28;20056;-63
2021/10/04 08:06:53;;;;;;;1.27;0.55;;;;;;;13.24;82.29;100526.03;5055860;28;20055;-65
2021/10/04 08:09:37;;;;;;;1.27;0.60;;;;;;;13.26;82.52;100529.41;5051766;28;20060;-63
2021/10/04 08:12:25;;;;;;;1.00;0.57;;;;;;;13.27;81.33;100531.13;5064699;28;20075;-64
2021/10/04 08:15:10;;;;;;;1.75;0.50;;;;;;;13.24;82.34;100531.44;5053924;28;20060;-62
2021/10/04 08:17:56;;;;;;;2.50;0.60;;;;;;;13.31;82.05;100525.28;5056190;28;20052;-63
2021/10/04 08:20:42;;;;;;;0.50;0.47;;;;;;;13.38;81.74;100533.59;5042756;28;20059;-64
2021/10/04 08:23:26;;;;;;;1.63;0.60;;;;;;;13.41;80.34;100535.97;5048715;28;20052;-63
2021/10/04 08:26:12;;;;;;;1.97;0.60;;;;;;;13.38;80.92;100536.28;5050336;28;20242;-62
2021/10/04 08:28:58;;;;;;;1.85;0.50;;;;;;;13.40;81.54;100539.69;5049984;28;20114;-61
2021/10/04 08:31:43;;;;;;;2.38;0.95;;;;;;;13.45;80.52;100537.34;5038050;28;20087;-62
2021/10/04 08:34:29;;;;;;;1.40;0.50;;;;;;;13.55;80.13;100529.19;5025119;28;20415;-63
2021/10/04 08:37:15;;;;;;;1.98;0.93;;;;;;;13.58;79.19;100535.09;5036787;28;20052;-62
2021/10/04 08:40:00;;;;;;;1.67;0.88;;;;;;;13.59;79.90;100542.19;5041050;28;20056;-64
2021/10/04 08:42:46;;;;;;;2.03;1.05;;;;;;;13.56;81.06;100534.41;5039803;28;20122;-64
2021/10/04 08:45:31;;;;;;;1.33;0.70;;;;;;;13.50;80.92;100544.97;5041221;28;20059;-63
2021/10/04 08:48:16;;;;;;;2.75;1.13;;;;;;;13.49;81.09;100546.81;5033186;28;20053;-63
2021/10/04 08:51:04;;;;;;;2.65;1.48;;;;;;;13.52;78.92;100535.75;5040814;28;20106;-62
2021/10/04 08:53:49;;;;;;;2.88;1.30;;;;;;;13.44;80.28;100543.75;5041439;28;20056;-60
2021/10/04 08:56:36;;;;;;;1.90;1.00;;;;;;;13.44;82.19;100554.53;5032076;28;20048;-64
2021/10/04 08:59:21;;;;;;;2.80;1.27;;;;;;;13.45;83.23;100557.06;5030258;28;20521;-63
2021/10/04 09:02:26;;;;;;;1.83;1.13;;;;;;;13.57;79.20;100548.75;5031926;28;20122;-63
2021/10/04 09:05:18;;;;;;;4.82;2.25;;;;;;;13.58;78.88;100545.03;5032994;28;20052;-63
2021/10/04 09:08:10;;;;;;;4.82;2.13;;;;;;;13.59;79.98;100558.34;5034608;28;20051;-63
2021/10/04 09:10:56;;;;;;;3.38;2.25;;;;;;;13.59;79.16;100565.59;5031927;28;20203;-62
2021/10/04 09:13:47;;;;;;;3.65;2.42;;;;;;;13.71;77.47;100567.91;5036260;28;20083;-63
2021/10/04 09:17:03;;;;;;;5.30;2.40;;;;;;;13.68;78.21;100579.00;5030561;28;20091;-63
2021/10/04 09:19:48;;;;;;;4.27;2.80;;;;;;;13.62;78.82;100585.03;4977156;28;20081;-64
2021/10/04 09:22:33;;;;;;;5.75;2.60;;;;;;;13.60;78.95;100578.94;5039394;28;20364;-62
2021/10/04 09:25:19;;;;;;;4.95;2.63;;;;;;;13.60;79.76;100589.72;5039395;28;20568;-62
2021/10/04 09:28:04;;;;;;;3.42;2.40;;;;;;;13.56;79.16;100579.41;5038729;28;20122;-62
2021/10/04 09:30:52;;;;;;;3.95;2.60;;;;;;;13.74;78.67;100570.31;5032824;28;20067;-63
2021/10/04 09:33:58;;;;;;;5.28;2.88;;;;;;;13.94;76.70;100564.69;5035635;28;20051;-64
2021/10/04 09:36:45;;;;;;;3.35;2.38;;;;;;;14.06;75.69;100555.34;5037738;28;20076;-62
2021/10/04 09:39:31;;;;;;;4.82;2.30;;;;;;;14.10;76.03;100556.72;5039967;28;20056;-65
2021/10/04 09:42:19;;;;;;;4.47;2.40;;;;;;;14.15;75.71;100550.84;5037868;28;20056;-63
2021/10/04 09:45:06;;;;;;;5.10;3.00;;;;;;;14.18;75.37;100559.47;5036373;28;20466;-61
2021/10/04 09:47:54;;;;;;;4.70;2.35;;;;;;;14.28;75.82;100565.59;5038912;28;20052;-58
2021/10/04 09:50:41;;;;;;;4.28;2.90;;;;;;;14.33;76.82;100557.88;5042417;28;20059;-59
2021/10/04 09:53:26;;;;;;;4.60;2.67;;;;;;;14.37;75.77;100562.94;5040511;28;20091;-60
2021/10/04 09:56:25;;;;;;;7.32;2.50;;;;;;;14.36;74.88;100572.06;5036733;28;20431;-60
2021/10/04 09:59:12;;;;;;;5.00;2.58;;;;;;;14.32;76.15;100580.47;5040005;28;20064;-60
2021/10/04 10:01:57;;;;;;;3.35;2.10;;;;;;;14.43;75.48;100567.69;5037236;28;20052;-58
2021/10/04 10:04:42;;;;;;;3.20;2.15;;;;;;;14.46;75.70;100567.41;5037033;28;20055;-61
2021/10/04 10:07:27;;;;;;;3.80;2.05;;;;;;;14.47;75.81;100571.81;5030043;28;20056;-59
2021/10/04 10:10:12;;;;;;;5.07;2.63;;;;;;;14.36;75.73;100580.16;5032460;28;20137;-59
2021/10/04 10:12:58;;;;;;;4.25;2.40;;;;;;;14.19;75.33;100571.94;5035522;28;20052;-65
2021/10/04 10:15:49;;;;;;;4.47;2.35;;;;;;;14.15;77.50;100570.56;5042227;28;20068;-64
2021/10/04 10:18:39;;;;;;;5.15;2.03;;;;;;;14.18;76.04;100572.94;5061158;28;20052;-64
2021/10/04 10:21:27;;;;;;;3.97;1.95;;;;;;;14.17;76.36;100575.81;5041951;28;20505;-62
2021/10/04 10:24:13;;;;;;;3.28;2.03;;;;;;;14.13;76.74;100572.59;5041160;28;20060;-63
2021/10/04 10:27:00;;;;;;;2.97;1.65;;;;;;;14.14;75.30;100562.66;5034566;22;20057;-59
2021/10/04 10:29:45;;;;;;;3.75;1.63;;;;;;;14.07;76.26;100573.22;5015404;28;20519;-58
2021/10/04 10:32:36;;;;;;;4.20;3.43;;;;;;;14.00;75.98;100566.78;5023933;28;20060;-60
2021/10/04 10:35:45;;;;;;;2.95;1.60;;;;;;;13.94;74.66;100565.53;5030066;28;20154;-62
2021/10/04 10:38:59;;;;;;;3.10;1.70;;;;;;;14.04;76.24;100573.53;5047614;28;20071;-61
2021/10/04 10:42:10;;;;;;;2.97;1.58;;;;;;;13.95;78.36;100580.72;5040283;28;20505;-62
2021/10/04 10:45:16;;;;;;;2.30;1.48;;;;;;;13.92;79.90;100582.91;5035047;28;20188;-57
2021/10/04 10:48:02;;;;;;;3.15;1.60;;;;;;;13.84;79.64;100582.84;5031389;28;20044;-62
2021/10/04 10:50:48;;;;;;;4.75;1.55;;;;;;;13.80;80.13;100573.38;5041865;28;20114;-61
2021/10/04 10:53:34;;;;;;;3.03;1.40;;;;;;;13.85;79.99;100589.91;5037874;28;20060;-61
2021/10/04 10:56:19;;;;;;;3.45;1.58;;;;;;;13.83;79.38;100605.41;5042308;28;20071;-62
2021/10/04 10:59:25;;;;;;;3.13;1.45;;;;;;;13.77;80.54;100603.38;5035847;28;20633;-62
2021/10/04 11:02:43;;;;;;;3.60;1.33;;;;;;;13.71;79.18;100594.88;5029497;28;20056;-59
2021/10/04 11:06:05;;;;;;;2.47;1.42;;;;;;;13.77;77.72;100606.06;5040969;28;20422;-62
2021/10/04 11:08:56;;;;;;;2.03;1.30;;;;;;;13.66;78.34;100608.00;5032415;28;20053;-62
2021/10/04 11:11:42;;;;;;;3.22;1.30;;;;;;;13.69;80.84;100618.47;5034942;28;20138;-60
2021/10/04 11:14:27;;;;;;;3.58;1.20;;;;;;;13.60;81.33;100619.38;5026806;28;20463;-62
2021/10/04 11:17:13;;;;;;;5.30;1.38;;;;;;;13.59;80.23;100623.09;5028995;28;20462;-62
2021/10/04 11:19:58;;;;;;;2.13;1.05;;;;;;;13.74;79.76;100618.88;5028262;28;20048;-60
2021/10/04 11:22:45;;;;;;;2.75;1.17;;;;;;;14.03;76.92;100609.63;5034441;28;20434;-62
2021/10/04 11:25:30;;;;;;;5.55;1.33;;;;;;;13.93;78.07;100611.56;5033916;28;20060;-60
2021/10/04 11:28:18;;;;;;;3.78;1.40;;;;;;;14.10;77.89;100613.41;5038454;28;20072;-62
2021/10/04 11:31:05;;;;;;;3.05;1.00;;;;;;;14.18;77.56;100620.69;5038788;28;20056;-63
2021/10/04 11:33:52;;;;;;;3.00;1.08;;;;;;;14.30;75.89;100622.13;5038278;28;20071;-62
2021/10/04 11:36:39;;;;;;;1.63;1.02;;;;;;;14.29;76.77;100623.97;5037325;28;20056;-62
2021/10/04 11:39:28;;;;;;;2.58;1.00;;;;;;;14.21;76.88;100606.91;5033399;28;20119;-60
2021/10/04 11:42:14;;;;;;;2.47;1.00;;;;;;;14.33;77.36;100609.19;5038561;28;20060;-61
2021/10/04 11:45:00;;;;;;;3.60;0.82;;;;;;;14.22;75.86;100608.59;5038174;28;20122;-65
2021/10/04 11:47:45;;;;;;;;;;;;;;;14.26;76.75;100609.97;5030189;28;20056;-60
2021/10/04 11:50:33;;;;;;;2.63;1.30;;;;;;;14.23;76.20;100615.69;5032367;28;19956;-62
2021/10/04 11:53:19;;;;;;;2.83;0.98;;;;;;;14.24;77.28;100610.13;5041922;28;20118;-64
2021/10/04 11:56:08;;;;;;;2.53;1.10;;;;;;;14.16;76.40;100601.97;5041881;28;20533;-59
2021/10/04 11:58:56;;;;;;;3.10;0.95;;;;;;;14.28;76.02;100606.09;5037930;28;20052;-63
2021/10/04 12:01:41;;;;;;;2.90;1.42;;;;;;;14.29;75.68;100609.63;5030304;28;20056;-62
2021/10/04 12:04:26;;;;;;;4.63;1.15;;;;;;;14.18;77.60;100618.00;5032928;28;20068;-63
2021/10/04 12:07:11;;;;;;;3.78;1.10;;;;;;;14.23;74.70;100616.53;5043176;28;20120;-61
2021/10/04 12:09:57;;;;;;;3.72;1.10;;;;;;;13.96;75.79;100608.56;5036592;28;20182;-62
2021/10/04 12:12:43;;;;;;;4.05;1.10;;;;;;;13.98;75.86;100604.72;5039888;28;20053;-61
2021/10/04 12:15:29;;;;;;;3.97;0.90;;;;;;;13.96;76.29;100606.69;5041592;28;20060;-61
2021/10/04 12:18:16;;;;;;;3.00;0.80;;;;;;;13.99;75.86;100622.59;5050738;28;20517;-63
2021/10/04 12:21:15;;;;;;;4.13;1.08;;;;;;;14.04;75.78;100622.13;5038714;28;20522;-62
2021/10/04 12:24:16;;;;;;;4.32;1.15;;;;;;;14.14;75.12;100625.56;5050960;28;20098;-62
2021/10/04 12:27:06;;;;;;;2.33;1.20;;;;;;;14.03;75.98;100631.22;5043799;28;20060;-63
2021/10/04 12:29:58;;;;;;;5.03;1.30;;;;;;;13.92;78.09;100620.69;5049329;28;20052;-63
2021/10/04 12:32:46;;;;;;;1.90;1.20;;;;;;;13.94;76.92;100610.56;5046300;28;20063;-62
2021/10/04 12:35:31;;;;;;;7.95;1.50;;;;;;;13.92;75.52;100610.72;5048355;28;20107;-63
2021/10/04 12:38:17;;;;;;;5.18;1.27;;;;;;;13.82;75.80;100617.22;5050871;28;20048;-63
2021/10/04 12:41:03;;;;;;;;;;;;;;;14.07;75.54;100611.00;5051853;28;20052;-62
2021/10/04 12:43:48;;;;;;;3.30;1.05;;;;;;;14.14;75.80;100622.03;5050435;28;19927;-62
2021/10/04 12:46:34;;;;;;;3.45;1.05;;;;;;;14.14;73.85;100614.78;5051253;28;20056;-62
2021/10/04 12:49:21;;;;;;;3.00;1.17;;;;;;;14.24;73.85;100604.72;5050923;28;20556;-63
2021/10/04 12:52:20;;;;;;;6.60;1.05;;;;;;;14.32;73.41;100602.09;5050302;28;20079;-62
2021/10/04 12:55:06;;;;;;;2.97;1.25;;;;;;;14.33;73.48;100603.78;5047844;28;20052;-62
2021/10/04 12:57:53;;;;;;;2.40;0.80;;;;;;;14.40;73.89;100611.22;5050812;28;20052;-63
2021/10/04 13:00:38;;;;;;;2.97;1.30;;;;;;;14.36;73.59;100615.25;5050018;28;20107;-63